createdAt,value
2022-08-30T00:03:47.890Z,4.70
2022-08-30T00:07:51.254Z,6.63
2022-08-30T00:11:54.210Z,7.75
2022-08-30T00:15:57.932Z,5.50
2022-08-30T00:20:00.941Z,4.75
2022-08-30T00:24:05.102Z,4.68
2022-08-30T00:28:09.755Z,4.68
2022-08-30T00:32:12.703Z,5.40
2022-08-30T00:36:16.111Z,5.05
2022-08-30T00:40:27.137Z,4.88
2022-08-30T00:44:31.805Z,4.78
2022-08-30T00:48:40.769Z,5.43
2022-08-30T00:52:47.984Z,7.03
2022-08-30T00:56:51.180Z,4.30
2022-08-30T01:00:56.933Z,5.57
2022-08-30T01:05:02.435Z,7.03
2022-08-30T01:09:06.101Z,8.32
2022-08-30T01:13:10.770Z,6.25
2022-08-30T01:17:14.435Z,5.72
2022-08-30T01:21:50.161Z,6.10
2022-08-30T01:25:54.377Z,5.85
2022-08-30T01:29:58.982Z,6.35
2022-08-30T01:34:02.618Z,8.10
2022-08-30T01:38:05.584Z,6.88
2022-08-30T01:42:08.513Z,5.78
2022-08-30T01:46:12.324Z,6.93
2022-08-30T01:50:15.730Z,5.32
2022-08-30T01:54:19.021Z,6.03
2022-08-30T01:58:23.376Z,8.25
2022-08-30T02:02:29.374Z,9.52
2022-08-30T02:06:32.593Z,9.00
2022-08-30T02:10:35.698Z,9.10
2022-08-30T02:14:39.323Z,9.18
2022-08-30T02:18:42.626Z,9.27
2022-08-30T02:22:48.167Z,8.88
2022-08-30T02:26:55.633Z,8.52
2022-08-30T02:30:58.718Z,8.13
2022-08-30T02:35:01.743Z,7.15
2022-08-30T02:39:04.619Z,7.13
2022-08-30T02:43:07.709Z,7.95
2022-08-30T02:47:10.727Z,8.60
2022-08-30T02:51:14.601Z,8.30
2022-08-30T02:55:18.317Z,7.10
2022-08-30T02:59:21.194Z,7.95
2022-08-30T03:03:24.184Z,9.07
2022-08-30T03:07:27.545Z,8.68
2022-08-30T03:11:31.373Z,8.75
2022-08-30T03:15:36.108Z,8.80
2022-08-30T03:19:38.995Z,8.48
2022-08-30T03:23:42.651Z,8.27
2022-08-30T03:27:45.513Z,9.65
2022-08-30T03:31:53.350Z,8.52
2022-08-30T03:35:56.698Z,8.25
2022-08-30T03:39:59.881Z,8.65
2022-08-30T03:44:03.235Z,6.60
2022-08-30T03:48:07.557Z,6.68
2022-08-30T03:52:10.473Z,6.78
2022-08-30T03:56:13.658Z,7.97
2022-08-30T04:00:17.752Z,6.20
2022-08-30T04:04:21.221Z,5.43
2022-08-30T04:08:25.644Z,5.78
2022-08-30T04:12:28.514Z,7.50
2022-08-30T04:16:31.376Z,6.22
2022-08-30T04:20:34.397Z,10.05
2022-08-30T04:24:38.480Z,6.68
2022-08-30T04:28:41.459Z,6.22
2022-08-30T04:32:45.731Z,7.40
2022-08-30T04:36:49.543Z,6.75
2022-08-30T04:40:52.810Z,9.52
2022-08-30T04:44:57.079Z,5.63
2022-08-30T04:48:59.975Z,5.50
2022-08-30T04:53:02.900Z,5.32
2022-08-30T04:57:07.146Z,7.40
2022-08-30T05:01:18.791Z,6.53
2022-08-30T05:05:39.903Z,6.60
2022-08-30T05:09:42.818Z,7.43
2022-08-30T05:13:46.014Z,6.88
2022-08-30T05:17:49.234Z,6.07
2022-08-30T05:21:55.231Z,6.38
2022-08-30T05:26:07.736Z,7.65
2022-08-30T05:30:11.648Z,7.32
2022-08-30T05:34:17.762Z,6.05
2022-08-30T05:38:43.483Z,6.28
2022-08-30T05:47:46.425Z,6.53
2022-08-30T05:52:44.826Z,7.07
2022-08-30T05:58:01.798Z,8.98
2022-08-30T06:23:20.650Z,6.82
2022-08-30T06:27:31.561Z,7.82
2022-08-30T06:31:34.724Z,8.18
2022-08-30T06:35:46.776Z,7.93
2022-08-30T06:39:57.549Z,6.40
2022-08-30T06:44:02.814Z,8.25
2022-08-30T06:48:05.809Z,9.27
2022-08-30T06:52:08.724Z,10.40
2022-08-30T06:56:16.665Z,11.85
2022-08-30T07:00:19.854Z,12.43
2022-08-30T07:04:22.885Z,14.50
2022-08-30T07:08:26.128Z,14.27
2022-08-30T07:12:28.949Z,14.40
2022-08-30T07:16:33.070Z,14.20
2022-08-30T07:20:40.289Z,14.45
2022-08-30T07:24:44.577Z,12.10
2022-08-30T07:28:48.013Z,10.90
2022-08-30T07:32:55.239Z,11.05
2022-08-30T07:37:00.065Z,9.50
2022-08-30T07:41:02.956Z,8.13
2022-08-30T07:45:06.263Z,5.43
2022-08-30T07:49:11.040Z,5.40
2022-08-30T07:53:14.882Z,6.40
2022-08-30T07:57:21.039Z,7.90
2022-08-30T08:05:45.174Z,8.40
2022-08-30T08:09:48.110Z,6.90
2022-08-30T08:13:53.960Z,7.07
2022-08-30T08:17:57.989Z,6.20
2022-08-30T08:22:20.530Z,5.82
2022-08-30T08:26:24.310Z,7.28
2022-08-30T08:30:27.163Z,5.20
2022-08-30T08:34:30.913Z,5.53
2022-08-30T08:38:35.081Z,6.60
2022-08-30T08:42:51.909Z,12.25
2022-08-30T08:47:15.819Z,5.75
2022-08-30T08:51:41.673Z,6.82
2022-08-30T08:59:52.517Z,8.10
2022-08-30T09:04:05.712Z,8.07
2022-08-30T09:08:14.141Z,5.63
2022-08-30T09:12:17.159Z,5.05
2022-08-30T09:16:44.923Z,7.97
2022-08-30T09:20:49.786Z,5.35
2022-08-30T09:25:21.329Z,5.30
2022-08-30T09:29:24.216Z,5.70
2022-08-30T09:33:27.067Z,12.32
2022-08-30T09:37:54.779Z,7.88
2022-08-30T09:42:23.939Z,4.25
2022-08-30T09:47:32.208Z,4.32
2022-08-30T09:51:56.321Z,4.78
2022-08-30T09:56:15.760Z,5.20
2022-08-30T10:01:08.718Z,4.60
2022-08-30T10:06:08.414Z,6.03
2022-08-30T10:10:33.296Z,6.07
2022-08-30T10:15:07.722Z,4.70
2022-08-30T10:19:20.706Z,4.47
2022-08-30T10:23:49.303Z,4.00
2022-08-30T10:28:11.183Z,4.88
2022-08-30T10:37:02.554Z,3.40
2022-08-30T10:41:31.668Z,6.88
2022-08-30T10:45:40.822Z,3.65
2022-08-30T10:49:50.291Z,3.80
2022-08-30T10:54:37.016Z,3.75
2022-08-30T10:58:44.574Z,4.00
2022-08-30T11:03:06.887Z,2.95
2022-08-30T11:08:00.398Z,4.30
2022-08-30T11:12:35.156Z,3.50
2022-08-30T11:16:44.860Z,3.38
2022-08-30T11:20:50.464Z,2.75
2022-08-30T11:25:09.737Z,3.50
2022-08-30T11:29:37.551Z,5.15
2022-08-30T11:33:46.518Z,4.13
2022-08-30T11:38:04.551Z,6.15
2022-08-30T11:48:54.589Z,4.53
2022-08-30T11:59:01.648Z,3.42
2022-08-30T12:00:02.494Z,4.47
2022-08-30T17:54:58.377Z,4.40
2022-08-30T17:59:01.395Z,4.40
2022-08-30T18:03:04.724Z,5.15
2022-08-30T18:07:11.916Z,5.65
2022-08-30T18:11:15.249Z,4.05
2022-08-30T18:15:18.261Z,3.88
2022-08-30T18:19:21.679Z,3.85
2022-08-30T18:23:24.678Z,5.55
2022-08-30T18:27:28.301Z,4.28
2022-08-30T18:31:31.467Z,2.92
2022-08-30T18:35:36.368Z,4.90
2022-08-30T18:39:39.751Z,4.22
2022-08-30T18:43:44.835Z,4.10
2022-08-30T18:47:47.848Z,4.85
2022-08-30T18:51:50.721Z,5.72
2022-08-30T18:55:54.129Z,7.10
2022-08-30T18:59:57.670Z,4.32
2022-08-30T19:04:02.152Z,3.70
2022-08-30T19:08:06.551Z,6.90
2022-08-30T19:12:09.777Z,4.65
2022-08-30T19:16:14.841Z,3.58
2022-08-30T19:20:21.030Z,3.65
2022-08-30T19:24:23.905Z,4.00
2022-08-30T19:28:27.068Z,4.07
2022-08-30T19:32:30.079Z,5.35
2022-08-30T19:36:33.891Z,4.35
2022-08-30T19:40:36.895Z,4.40
2022-08-30T19:44:39.772Z,5.18
2022-08-30T19:48:43.532Z,3.72
2022-08-30T19:52:53.417Z,4.47
2022-08-30T19:56:57.308Z,3.42
2022-08-30T20:01:10.627Z,6.63
2022-08-30T20:05:16.120Z,5.55
2022-08-30T20:09:19.011Z,4.78
2022-08-30T20:13:24.903Z,5.40
2022-08-30T20:17:42.334Z,6.20
2022-08-30T20:21:53.610Z,4.35
2022-08-30T20:25:57.659Z,6.18
2022-08-30T20:30:00.429Z,4.72
2022-08-30T20:34:04.542Z,5.25
2022-08-30T20:38:07.447Z,4.25
2022-08-30T20:42:10.263Z,5.07
2022-08-30T20:46:18.960Z,4.25
2022-08-30T20:50:21.952Z,5.00
2022-08-30T20:54:24.699Z,7.72
2022-08-30T20:58:28.121Z,5.95
2022-08-30T21:02:31.542Z,4.60
2022-08-30T21:06:37.501Z,6.18
2022-08-30T21:10:41.167Z,7.75
2022-08-30T21:14:44.110Z,6.35
2022-08-30T21:18:47.105Z,4.72
2022-08-30T21:22:49.874Z,4.20
2022-08-30T21:26:54.352Z,6.15
2022-08-30T21:31:13.495Z,5.28
2022-08-30T21:35:34.657Z,5.38
2022-08-30T21:39:37.431Z,4.18
2022-08-30T21:43:40.149Z,5.18
2022-08-30T21:47:43.024Z,5.15
2022-08-30T21:51:47.665Z,4.72
2022-08-30T21:55:50.433Z,5.93
2022-08-30T21:59:54.725Z,5.53
2022-08-30T22:04:00.147Z,4.60
2022-08-30T22:08:03.390Z,5.50
2022-08-30T22:12:06.977Z,6.38
2022-08-30T22:16:12.354Z,7.10
2022-08-30T22:20:18.481Z,7.47
2022-08-30T22:24:22.438Z,6.90
2022-08-30T22:28:25.472Z,6.28
2022-08-30T22:32:28.644Z,10.32
2022-08-30T22:36:34.556Z,6.35
2022-08-30T22:40:37.651Z,7.05
2022-08-30T22:44:40.525Z,7.25
2022-08-30T22:48:46.821Z,6.47
2022-08-30T22:52:49.595Z,9.38
2022-08-30T22:56:52.685Z,6.43
2022-08-30T23:00:56.418Z,6.30
2022-08-30T23:05:00.585Z,5.68
2022-08-30T23:09:06.371Z,8.50
2022-08-30T23:13:09.157Z,6.47
2022-08-30T23:17:11.959Z,5.55
2022-08-30T23:21:21.879Z,8.98
2022-08-30T23:25:51.970Z,7.78
2022-08-30T23:30:13.648Z,5.57
2022-08-30T23:34:35.120Z,7.85
2022-08-30T23:38:57.273Z,8.65
2022-08-30T23:43:18.577Z,6.05
2022-08-30T23:47:40.010Z,6.35
2022-08-30T23:52:01.166Z,6.50
2022-08-30T23:56:22.584Z,6.32
